sensor_id;sensor_type;location;lat;lon;timestamp;P1;durP1;ratioP1;P2;durP2;ratioP2
61638;SDS011;47544;52.484;4.658;2023-03-01T00:00:09;22.92;;;15.27;;
61638;SDS011;47544;52.484;4.658;2023-03-01T00:00:20;22.95;;;15.90;;
61638;SDS011;47544;52.484;4.658;2023-03-01T00:00:31;24.05;;;16.45;;
61638;SDS011;47544;52.484;4.658;2023-03-01T00:00:42;25.35;;;16.63;;
61638;SDS011;47544;52.484;4.658;2023-03-01T00:01:00;27.77;;;16.83;;
61638;SDS011;47544;52.484;4.658;2023-03-01T00:01:12;25.77;;;16.20;;
61638;SDS011;47544;52.484;4.658;2023-03-01T00:01:27;25.58;;;16.10;;
61638;SDS011;47544;52.484;4.658;2023-03-01T00:01:38;25.23;;;16.63;;
61638;SDS011;47544;52.484;4.658;2023-03-01T00:01:49;25.67;;;17.15;;
61638;SDS011;47544;52.484;4.658;2023-03-01T00:02:00;25.45;;;17.00;;
61638;SDS011;47544;52.484;4.658;2023-03-01T00:02:11;25.55;;;16.90;;
61638;SDS011;47544;52.484;4.658;2023-03-01T00:02:23;25.48;;;16.80;;
61638;SDS011;47544;52.484;4.658;2023-03-01T00:02:34;26.33;;;17.33;;
61638;SDS011;47544;52.484;4.658;2023-03-01T00:02:45;26.65;;;16.88;;
61638;SDS011;47544;52.484;4.658;2023-03-01T00:02:56;27.23;;;16.80;;
61638;SDS011;47544;52.484;4.658;2023-03-01T00:03:07;27.57;;;16.90;;
61638;SDS011;47544;52.484;4.658;2023-03-01T00:03:18;28.42;;;17.35;;
61638;SDS011;47544;52.484;4.658;2023-03-01T00:03:29;29.50;;;17.15;;
61638;SDS011;47544;52.484;4.658;2023-03-01T00:03:40;28.92;;;16.63;;
61638;SDS011;47544;52.484;4.658;2023-03-01T00:03:51;29.00;;;16.75;;
61638;SDS011;47544;52.484;4.658;2023-03-01T00:04:04;29.70;;;17.05;;
61638;SDS011;47544;52.484;4.658;2023-03-01T00:04:14;30.00;;;17.48;;
61638;SDS011;47544;52.484;4.658;2023-03-01T00:04:25;29.40;;;17.85;;
61638;SDS011;47544;52.484;4.658;2023-03-01T00:04:38;28.27;;;17.63;;
61638;SDS011;47544;52.484;4.658;2023-03-01T00:04:49;28.58;;;17.77;;
61638;SDS011;47544;52.484;4.658;2023-03-01T00:05:00;27.88;;;17.88;;
61638;SDS011;47544;52.484;4.658;2023-03-01T00:05:11;27.58;;;17.55;;
61638;SDS011;47544;52.484;4.658;2023-03-01T00:05:23;27.13;;;17.45;;
61638;SDS011;47544;52.484;4.658;2023-03-01T00:05:34;26.85;;;17.08;;
61638;SDS011;47544;52.484;4.658;2023-03-01T00:05:45;26.70;;;17.05;;
61638;SDS011;47544;52.484;4.658;2023-03-01T00:05:56;26.65;;;16.98;;
61638;SDS011;47544;52.484;4.658;2023-03-01T00:06:06;27.05;;;17.02;;
61638;SDS011;47544;52.484;4.658;2023-03-01T00:06:18;27.08;;;16.67;;
61638;SDS011;47544;52.484;4.658;2023-03-01T00:06:29;26.80;;;15.95;;
61638;SDS011;47544;52.484;4.658;2023-03-01T00:06:41;26.40;;;15.25;;
61638;SDS011;47544;52.484;4.658;2023-03-01T00:06:53;26.85;;;15.82;;
61638;SDS011;47544;52.484;4.658;2023-03-01T00:07:04;24.77;;;15.20;;
61638;SDS011;47544;52.484;4.658;2023-03-01T00:07:15;25.73;;;15.90;;
61638;SDS011;47544;52.484;4.658;2023-03-01T00:07:26;27.17;;;16.52;;
61638;SDS011;47544;52.484;4.658;2023-03-01T00:07:37;27.35;;;17.65;;
61638;SDS011;47544;52.484;4.658;2023-03-01T00:07:48;26.50;;;17.33;;
61638;SDS011;47544;52.484;4.658;2023-03-01T00:08:00;27.15;;;16.20;;
61638;SDS011;47544;52.484;4.658;2023-03-01T00:08:11;27.58;;;16.00;;
61638;SDS011;47544;52.484;4.658;2023-03-01T00:08:22;26.48;;;15.57;;
61638;SDS011;47544;52.484;4.658;2023-03-01T00:08:33;26.33;;;15.45;;
61638;SDS011;47544;52.484;4.658;2023-03-01T00:08:44;27.70;;;16.20;;
61638;SDS011;47544;52.484;4.658;2023-03-01T00:08:55;29.90;;;17.38;;
61638;SDS011;47544;52.484;4.658;2023-03-01T00:09:06;28.90;;;17.52;;
61638;SDS011;47544;52.484;4.658;2023-03-01T00:09:17;28.15;;;16.95;;
61638;SDS011;47544;52.484;4.658;2023-03-01T00:09:28;27.23;;;16.95;;
61638;SDS011;47544;52.484;4.658;2023-03-01T00:09:39;27.88;;;17.13;;
61638;SDS011;47544;52.484;4.658;2023-03-01T00:09:51;29.00;;;17.67;;
61638;SDS011;47544;52.484;4.658;2023-03-01T00:10:02;29.27;;;17.60;;
61638;SDS011;47544;52.484;4.658;2023-03-01T00:10:14;28.92;;;17.67;;
61638;SDS011;47544;52.484;4.658;2023-03-01T00:10:25;28.17;;;17.00;;
61638;SDS011;47544;52.484;4.658;2023-03-01T00:10:37;26.25;;;16.08;;
61638;SDS011;47544;52.484;4.658;2023-03-01T00:10:48;25.63;;;16.25;;
61638;SDS011;47544;52.484;4.658;2023-03-01T00:11:02;26.00;;;16.52;;
61638;SDS011;47544;52.484;4.658;2023-03-01T00:11:15;26.38;;;16.33;;
61638;SDS011;47544;52.484;4.658;2023-03-01T00:11:27;27.52;;;16.85;;
61638;SDS011;47544;52.484;4.658;2023-03-01T00:11:39;27.90;;;17.30;;
61638;SDS011;47544;52.484;4.658;2023-03-01T00:11:50;26.25;;;17.10;;
61638;SDS011;47544;52.484;4.658;2023-03-01T00:12:01;26.08;;;16.88;;
61638;SDS011;47544;52.484;4.658;2023-03-01T00:12:11;26.50;;;17.33;;
61638;SDS011;47544;52.484;4.658;2023-03-01T00:12:22;26.98;;;17.63;;
61638;SDS011;47544;52.484;4.658;2023-03-01T00:12:34;27.65;;;17.70;;
61638;SDS011;47544;52.484;4.658;2023-03-01T00:12:47;26.92;;;17.02;;
61638;SDS011;47544;52.484;4.658;2023-03-01T00:12:57;26.75;;;16.60;;
61638;SDS011;47544;52.484;4.658;2023-03-01T00:13:08;26.05;;;16.13;;
61638;SDS011;47544;52.484;4.658;2023-03-01T00:13:19;26.20;;;17.00;;
61638;SDS011;47544;52.484;4.658;2023-03-01T00:13:30;26.17;;;17.73;;
61638;SDS011;47544;52.484;4.658;2023-03-01T00:13:42;27.38;;;18.00;;
61638;SDS011;47544;52.484;4.658;2023-03-01T00:13:54;27.38;;;17.60;;
61638;SDS011;47544;52.484;4.658;2023-03-01T00:14:05;25.85;;;17.08;;
61638;SDS011;47544;52.484;4.658;2023-03-01T00:14:17;26.40;;;16.73;;
61638;SDS011;47544;52.484;4.658;2023-03-01T00:14:29;27.83;;;16.98;;
61638;SDS011;47544;52.484;4.658;2023-03-01T00:14:40;27.92;;;17.33;;
61638;SDS011;47544;52.484;4.658;2023-03-01T00:14:51;27.98;;;18.00;;
61638;SDS011;47544;52.484;4.658;2023-03-01T00:15:02;29.20;;;18.33;;
61638;SDS011;47544;52.484;4.658;2023-03-01T00:15:16;30.60;;;18.88;;
61638;SDS011;47544;52.484;4.658;2023-03-01T00:15:27;29.83;;;18.70;;
61638;SDS011;47544;52.484;4.658;2023-03-01T00:15:39;29.73;;;18.38;;
61638;SDS011;47544;52.484;4.658;2023-03-01T00:15:50;28.85;;;18.27;;
61638;SDS011;47544;52.484;4.658;2023-03-01T00:16:02;27.73;;;17.67;;
61638;SDS011;47544;52.484;4.658;2023-03-01T00:16:14;27.05;;;17.13;;
61638;SDS011;47544;52.484;4.658;2023-03-01T00:16:26;27.58;;;17.30;;
61638;SDS011;47544;52.484;4.658;2023-03-01T00:16:37;31.17;;;18.42;;
61638;SDS011;47544;52.484;4.658;2023-03-01T00:16:50;32.03;;;19.00;;
61638;SDS011;47544;52.484;4.658;2023-03-01T00:17:00;31.80;;;18.75;;
61638;SDS011;47544;52.484;4.658;2023-03-01T00:17:13;32.55;;;18.63;;
61638;SDS011;47544;52.484;4.658;2023-03-01T00:17:24;33.78;;;18.88;;
61638;SDS011;47544;52.484;4.658;2023-03-01T00:17:35;32.83;;;19.00;;
61638;SDS011;47544;52.484;4.658;2023-03-01T00:17:46;30.88;;;19.05;;
61638;SDS011;47544;52.484;4.658;2023-03-01T00:17:57;29.90;;;18.65;;
61638;SDS011;47544;52.484;4.658;2023-03-01T00:18:08;30.52;;;18.90;;
61638;SDS011;47544;52.484;4.658;2023-03-01T00:18:19;31.20;;;18.63;;
61638;SDS011;47544;52.484;4.658;2023-03-01T00:18:29;32.40;;;19.00;;
61638;SDS011;47544;52.484;4.658;2023-03-01T00:18:40;32.90;;;19.23;;
61638;SDS011;47544;52.484;4.658;2023-03-01T00:18:53;31.38;;;19.40;;
61638;SDS011;47544;52.484;4.658;2023-03-01T00:19:05;30.55;;;18.67;;
61638;SDS011;47544;52.484;4.658;2023-03-01T00:19:17;30.85;;;17.88;;
61638;SDS011;47544;52.484;4.658;2023-03-01T00:19:28;30.77;;;17.17;;
61638;SDS011;47544;52.484;4.658;2023-03-01T00:19:39;30.50;;;17.60;;
61638;SDS011;47544;52.484;4.658;2023-03-01T00:19:50;32.33;;;18.73;;
61638;SDS011;47544;52.484;4.658;2023-03-01T00:20:02;32.67;;;19.10;;
61638;SDS011;47544;52.484;4.658;2023-03-01T00:20:13;34.50;;;19.73;;
61638;SDS011;47544;52.484;4.658;2023-03-01T00:20:24;33.85;;;19.80;;
61638;SDS011;47544;52.484;4.658;2023-03-01T00:20:36;31.73;;;19.40;;
61638;SDS011;47544;52.484;4.658;2023-03-01T00:20:49;30.48;;;19.17;;
61638;SDS011;47544;52.484;4.658;2023-03-01T00:21:00;30.92;;;18.63;;
61638;SDS011;47544;52.484;4.658;2023-03-01T00:21:11;32.03;;;18.98;;
61638;SDS011;47544;52.484;4.658;2023-03-01T00:21:23;31.63;;;18.70;;
61638;SDS011;47544;52.484;4.658;2023-03-01T00:21:34;30.88;;;18.35;;
61638;SDS011;47544;52.484;4.658;2023-03-01T00:21:46;30.20;;;18.27;;
61638;SDS011;47544;52.484;4.658;2023-03-01T00:21:57;31.13;;;18.98;;
61638;SDS011;47544;52.484;4.658;2023-03-01T00:22:08;30.70;;;19.42;;
61638;SDS011;47544;52.484;4.658;2023-03-01T00:22:19;33.08;;;19.65;;
61638;SDS011;47544;52.484;4.658;2023-03-01T00:22:30;34.40;;;19.55;;
61638;SDS011;47544;52.484;4.658;2023-03-01T00:22:41;33.95;;;19.02;;
61638;SDS011;47544;52.484;4.658;2023-03-01T00:22:52;31.58;;;18.90;;
61638;SDS011;47544;52.484;4.658;2023-03-01T00:23:03;31.33;;;18.73;;
61638;SDS011;47544;52.484;4.658;2023-03-01T00:23:15;32.80;;;19.08;;
61638;SDS011;47544;52.484;4.658;2023-03-01T00:23:26;34.45;;;19.08;;
61638;SDS011;47544;52.484;4.658;2023-03-01T00:23:37;36.20;;;19.83;;
61638;SDS011;47544;52.484;4.658;2023-03-01T00:23:48;35.65;;;19.40;;
61638;SDS011;47544;52.484;4.658;2023-03-01T00:23:59;35.10;;;19.55;;
61638;SDS011;47544;52.484;4.658;2023-03-01T00:24:10;33.92;;;19.20;;
61638;SDS011;47544;52.484;4.658;2023-03-01T00:24:21;34.00;;;19.55;;
61638;SDS011;47544;52.484;4.658;2023-03-01T00:24:32;34.13;;;19.23;;
61638;SDS011;47544;52.484;4.658;2023-03-01T00:24:43;33.92;;;19.20;;
61638;SDS011;47544;52.484;4.658;2023-03-01T00:24:54;32.28;;;18.55;;
61638;SDS011;47544;52.484;4.658;2023-03-01T00:25:06;31.33;;;18.70;;
61638;SDS011;47544;52.484;4.658;2023-03-01T00:25:17;32.50;;;19.48;;
61638;SDS011;47544;52.484;4.658;2023-03-01T00:25:28;34.35;;;19.80;;
61638;SDS011;47544;52.484;4.658;2023-03-01T00:25:41;35.55;;;19.60;;
61638;SDS011;47544;52.484;4.658;2023-03-01T00:25:52;34.20;;;19.17;;
61638;SDS011;47544;52.484;4.658;2023-03-01T00:26:05;34.67;;;19.55;;
61638;SDS011;47544;52.484;4.658;2023-03-01T00:26:17;34.03;;;19.48;;
61638;SDS011;47544;52.484;4.658;2023-03-01T00:26:28;31.30;;;17.58;;
61638;SDS011;47544;52.484;4.658;2023-03-01T00:26:40;32.10;;;18.17;;
61638;SDS011;47544;52.484;4.658;2023-03-01T00:26:52;32.42;;;18.92;;
61638;SDS011;47544;52.484;4.658;2023-03-01T00:27:03;34.40;;;19.70;;
61638;SDS011;47544;52.484;4.658;2023-03-01T00:27:14;34.22;;;18.83;;
61638;SDS011;47544;52.484;4.658;2023-03-01T00:27:25;32.88;;;18.67;;
61638;SDS011;47544;52.484;4.658;2023-03-01T00:27:36;33.33;;;18.58;;
61638;SDS011;47544;52.484;4.658;2023-03-01T00:27:47;34.13;;;19.55;;
61638;SDS011;47544;52.484;4.658;2023-03-01T00:27:59;34.92;;;19.95;;
61638;SDS011;47544;52.484;4.658;2023-03-01T00:28:11;34.92;;;20.35;;
61638;SDS011;47544;52.484;4.658;2023-03-01T00:28:22;35.38;;;20.10;;
61638;SDS011;47544;52.484;4.658;2023-03-01T00:28:33;34.05;;;19.60;;
61638;SDS011;47544;52.484;4.658;2023-03-01T00:28:45;31.75;;;19.02;;
61638;SDS011;47544;52.484;4.658;2023-03-01T00:28:56;31.58;;;18.85;;
61638;SDS011;47544;52.484;4.658;2023-03-01T00:29:07;32.15;;;19.05;;
61638;SDS011;47544;52.484;4.658;2023-03-01T00:29:18;31.50;;;19.13;;
61638;SDS011;47544;52.484;4.658;2023-03-01T00:29:32;30.58;;;18.80;;
61638;SDS011;47544;52.484;4.658;2023-03-01T00:29:43;31.15;;;18.92;;
61638;SDS011;47544;52.484;4.658;2023-03-01T00:29:54;31.98;;;19.65;;
61638;SDS011;47544;52.484;4.658;2023-03-01T00:30:05;33.60;;;20.15;;
61638;SDS011;47544;52.484;4.658;2023-03-01T00:30:16;33.78;;;19.83;;
61638;SDS011;47544;52.484;4.658;2023-03-01T00:30:27;33.30;;;18.98;;
61638;SDS011;47544;52.484;4.658;2023-03-01T00:30:38;32.63;;;18.55;;
61638;SDS011;47544;52.484;4.658;2023-03-01T00:30:49;32.70;;;18.42;;
61638;SDS011;47544;52.484;4.658;2023-03-01T00:31:04;32.47;;;18.77;;
61638;SDS011;47544;52.484;4.658;2023-03-01T00:31:16;30.38;;;17.42;;
61638;SDS011;47544;52.484;4.658;2023-03-01T00:31:28;30.05;;;16.73;;
61638;SDS011;47544;52.484;4.658;2023-03-01T00:31:40;30.10;;;17.42;;
61638;SDS011;47544;52.484;4.658;2023-03-01T00:31:51;32.33;;;18.98;;
61638;SDS011;47544;52.484;4.658;2023-03-01T00:32:02;31.98;;;19.08;;
61638;SDS011;47544;52.484;4.658;2023-03-01T00:32:14;32.58;;;18.90;;
61638;SDS011;47544;52.484;4.658;2023-03-01T00:32:25;32.30;;;18.65;;
61638;SDS011;47544;52.484;4.658;2023-03-01T00:32:36;31.85;;;17.70;;
61638;SDS011;47544;52.484;4.658;2023-03-01T00:32:47;31.17;;;17.73;;
61638;SDS011;47544;52.484;4.658;2023-03-01T00:32:58;30.92;;;18.08;;
61638;SDS011;47544;52.484;4.658;2023-03-01T00:33:09;30.83;;;18.83;;
61638;SDS011;47544;52.484;4.658;2023-03-01T00:33:20;33.47;;;19.73;;
61638;SDS011;47544;52.484;4.658;2023-03-01T00:33:31;34.47;;;19.80;;
61638;SDS011;47544;52.484;4.658;2023-03-01T00:33:42;32.85;;;18.65;;
61638;SDS011;47544;52.484;4.658;2023-03-01T00:33:54;31.10;;;18.13;;
61638;SDS011;47544;52.484;4.658;2023-03-01T00:34:07;33.40;;;18.73;;
61638;SDS011;47544;52.484;4.658;2023-03-01T00:34:18;32.53;;;18.65;;
61638;SDS011;47544;52.484;4.658;2023-03-01T00:34:29;31.80;;;19.20;;
61638;SDS011;47544;52.484;4.658;2023-03-01T00:34:40;31.95;;;19.23;;
61638;SDS011;47544;52.484;4.658;2023-03-01T00:34:51;33.22;;;19.60;;
61638;SDS011;47544;52.484;4.658;2023-03-01T00:35:04;32.50;;;19.00;;
61638;SDS011;47544;52.484;4.658;2023-03-01T00:35:17;30.00;;;18.00;;
61638;SDS011;47544;52.484;4.658;2023-03-01T00:35:28;28.08;;;17.42;;
61638;SDS011;47544;52.484;4.658;2023-03-01T00:35:38;28.58;;;17.55;;
61638;SDS011;47544;52.484;4.658;2023-03-01T00:35:49;31.75;;;18.77;;
61638;SDS011;47544;52.484;4.658;2023-03-01T00:36:01;33.08;;;19.25;;
61638;SDS011;47544;52.484;4.658;2023-03-01T00:36:12;31.90;;;18.65;;
61638;SDS011;47544;52.484;4.658;2023-03-01T00:36:25;30.00;;;17.17;;
61638;SDS011;47544;52.484;4.658;2023-03-01T00:36:36;30.00;;;16.70;;
61638;SDS011;47544;52.484;4.658;2023-03-01T00:36:48;31.17;;;16.83;;
61638;SDS011;47544;52.484;4.658;2023-03-01T00:36:59;31.75;;;17.17;;
61638;SDS011;47544;52.484;4.658;2023-03-01T00:37:15;30.10;;;17.52;;
61638;SDS011;47544;52.484;4.658;2023-03-01T00:37:26;29.33;;;17.42;;
61638;SDS011;47544;52.484;4.658;2023-03-01T00:37:37;28.90;;;16.60;;
61638;SDS011;47544;52.484;4.658;2023-03-01T00:37:48;29.73;;;16.70;;
61638;SDS011;47544;52.484;4.658;2023-03-01T00:38:04;29.17;;;17.17;;
61638;SDS011;47544;52.484;4.658;2023-03-01T00:38:15;31.17;;;17.77;;
61638;SDS011;47544;52.484;4.658;2023-03-01T00:38:26;31.27;;;17.70;;
61638;SDS011;47544;52.484;4.658;2023-03-01T00:38:37;29.58;;;17.27;;
61638;SDS011;47544;52.484;4.658;2023-03-01T00:38:48;28.92;;;17.40;;
61638;SDS011;47544;52.484;4.658;2023-03-01T00:38:59;29.90;;;18.05;;
61638;SDS011;47544;52.484;4.658;2023-03-01T00:39:11;31.15;;;19.05;;
61638;SDS011;47544;52.484;4.658;2023-03-01T00:39:23;30.58;;;18.08;;
61638;SDS011;47544;52.484;4.658;2023-03-01T00:39:34;30.67;;;18.08;;
61638;SDS011;47544;52.484;4.658;2023-03-01T00:39:45;33.58;;;18.80;;
61638;SDS011;47544;52.484;4.658;2023-03-01T00:39:56;33.03;;;19.00;;
61638;SDS011;47544;52.484;4.658;2023-03-01T00:40:07;31.27;;;18.83;;
61638;SDS011;47544;52.484;4.658;2023-03-01T00:40:19;27.40;;;17.88;;
61638;SDS011;47544;52.484;4.658;2023-03-01T00:40:31;27.50;;;17.15;;
61638;SDS011;47544;52.484;4.658;2023-03-01T00:40:44;30.13;;;17.48;;
61638;SDS011;47544;52.484;4.658;2023-03-01T00:40:55;31.45;;;18.65;;
61638;SDS011;47544;52.484;4.658;2023-03-01T00:41:06;28.75;;;18.25;;
61638;SDS011;47544;52.484;4.658;2023-03-01T00:41:18;27.00;;;17.23;;
61638;SDS011;47544;52.484;4.658;2023-03-01T00:41:29;26.67;;;16.98;;
61638;SDS011;47544;52.484;4.658;2023-03-01T00:41:40;28.77;;;18.05;;
61638;SDS011;47544;52.484;4.658;2023-03-01T00:41:51;30.55;;;18.98;;
61638;SDS011;47544;52.484;4.658;2023-03-01T00:42:03;30.23;;;19.15;;
61638;SDS011;47544;52.484;4.658;2023-03-01T00:42:14;29.92;;;18.77;;
61638;SDS011;47544;52.484;4.658;2023-03-01T00:42:25;30.33;;;18.33;;
61638;SDS011;47544;52.484;4.658;2023-03-01T00:42:36;32.13;;;18.40;;
61638;SDS011;47544;52.484;4.658;2023-03-01T00:42:48;32.58;;;18.27;;
61638;SDS011;47544;52.484;4.658;2023-03-01T00:42:59;29.05;;;17.48;;
61638;SDS011;47544;52.484;4.658;2023-03-01T00:43:10;28.02;;;17.23;;
61638;SDS011;47544;52.484;4.658;2023-03-01T00:43:21;29.65;;;18.02;;
61638;SDS011;47544;52.484;4.658;2023-03-01T00:43:35;32.08;;;19.15;;
61638;SDS011;47544;52.484;4.658;2023-03-01T00:43:48;32.30;;;19.20;;
61638;SDS011;47544;52.484;4.658;2023-03-01T00:44:01;30.30;;;18.65;;
61638;SDS011;47544;52.484;4.658;2023-03-01T00:44:12;32.10;;;19.00;;
61638;SDS011;47544;52.484;4.658;2023-03-01T00:44:23;29.80;;;17.92;;
61638;SDS011;47544;52.484;4.658;2023-03-01T00:44:35;29.00;;;16.50;;
61638;SDS011;47544;52.484;4.658;2023-03-01T00:44:46;26.38;;;15.85;;
61638;SDS011;47544;52.484;4.658;2023-03-01T00:45:00;30.45;;;18.05;;
61638;SDS011;47544;52.484;4.658;2023-03-01T00:45:11;31.98;;;18.70;;
61638;SDS011;47544;52.484;4.658;2023-03-01T00:45:24;30.45;;;18.20;;
61638;SDS011;47544;52.484;4.658;2023-03-01T00:45:35;30.88;;;18.55;;
61638;SDS011;47544;52.484;4.658;2023-03-01T00:45:47;31.05;;;18.83;;
61638;SDS011;47544;52.484;4.658;2023-03-01T00:46:00;32.42;;;19.08;;
61638;SDS011;47544;52.484;4.658;2023-03-01T00:46:12;33.25;;;18.98;;
61638;SDS011;47544;52.484;4.658;2023-03-01T00:46:23;31.58;;;18.67;;
61638;SDS011;47544;52.484;4.658;2023-03-01T00:46:35;28.95;;;17.23;;
61638;SDS011;47544;52.484;4.658;2023-03-01T00:46:46;29.13;;;17.05;;
61638;SDS011;47544;52.484;4.658;2023-03-01T00:46:57;30.55;;;17.30;;
61638;SDS011;47544;52.484;4.658;2023-03-01T00:47:08;32.00;;;18.45;;
61638;SDS011;47544;52.484;4.658;2023-03-01T00:47:19;31.33;;;18.80;;
61638;SDS011;47544;52.484;4.658;2023-03-01T00:47:31;30.70;;;18.90;;
61638;SDS011;47544;52.484;4.658;2023-03-01T00:47:42;30.48;;;18.77;;
61638;SDS011;47544;52.484;4.658;2023-03-01T00:47:53;30.10;;;17.55;;
61638;SDS011;47544;52.484;4.658;2023-03-01T00:48:04;29.55;;;16.88;;
61638;SDS011;47544;52.484;4.658;2023-03-01T00:48:16;28.52;;;16.70;;
61638;SDS011;47544;52.484;4.658;2023-03-01T00:48:27;29.08;;;17.63;;
61638;SDS011;47544;52.484;4.658;2023-03-01T00:48:38;28.27;;;17.60;;
61638;SDS011;47544;52.484;4.658;2023-03-01T00:48:49;29.40;;;17.30;;
61638;SDS011;47544;52.484;4.658;2023-03-01T00:49:00;29.42;;;17.13;;
61638;SDS011;47544;52.484;4.658;2023-03-01T00:49:12;30.55;;;18.17;;
61638;SDS011;47544;52.484;4.658;2023-03-01T00:49:24;32.25;;;18.45;;
61638;SDS011;47544;52.484;4.658;2023-03-01T00:49:38;31.98;;;17.92;;
61638;SDS011;47544;52.484;4.658;2023-03-01T00:49:49;32.35;;;17.67;;
61638;SDS011;47544;52.484;4.658;2023-03-01T00:50:00;32.70;;;18.20;;
61638;SDS011;47544;52.484;4.658;2023-03-01T00:50:11;31.23;;;17.27;;
61638;SDS011;47544;52.484;4.658;2023-03-01T00:50:23;29.55;;;16.92;;
61638;SDS011;47544;52.484;4.658;2023-03-01T00:50:34;30.08;;;17.23;;
61638;SDS011;47544;52.484;4.658;2023-03-01T00:50:45;32.63;;;18.58;;
61638;SDS011;47544;52.484;4.658;2023-03-01T00:50:57;31.77;;;18.30;;
61638;SDS011;47544;52.484;4.658;2023-03-01T00:51:15;30.85;;;18.27;;
61638;SDS011;47544;52.484;4.658;2023-03-01T00:51:28;33.28;;;19.58;;
61638;SDS011;47544;52.484;4.658;2023-03-01T00:51:39;31.45;;;18.83;;
61638;SDS011;47544;52.484;4.658;2023-03-01T00:51:52;28.48;;;16.98;;
61638;SDS011;47544;52.484;4.658;2023-03-01T00:52:03;28.20;;;17.10;;
61638;SDS011;47544;52.484;4.658;2023-03-01T00:52:15;29.08;;;17.95;;
61638;SDS011;47544;52.484;4.658;2023-03-01T00:52:26;30.80;;;18.73;;
61638;SDS011;47544;52.484;4.658;2023-03-01T00:52:37;29.85;;;18.15;;
61638;SDS011;47544;52.484;4.658;2023-03-01T00:52:51;28.88;;;17.85;;
61638;SDS011;47544;52.484;4.658;2023-03-01T00:53:02;31.17;;;18.67;;
61638;SDS011;47544;52.484;4.658;2023-03-01T00:53:15;32.85;;;18.95;;
61638;SDS011;47544;52.484;4.658;2023-03-01T00:53:26;31.30;;;17.70;;
61638;SDS011;47544;52.484;4.658;2023-03-01T00:53:37;30.55;;;17.48;;
61638;SDS011;47544;52.484;4.658;2023-03-01T00:53:50;29.67;;;17.83;;
61638;SDS011;47544;52.484;4.658;2023-03-01T00:54:02;28.02;;;16.27;;
61638;SDS011;47544;52.484;4.658;2023-03-01T00:54:13;24.85;;;13.85;;
61638;SDS011;47544;52.484;4.658;2023-03-01T00:54:24;24.42;;;13.45;;
61638;SDS011;47544;52.484;4.658;2023-03-01T00:54:35;26.27;;;14.88;;
61638;SDS011;47544;52.484;4.658;2023-03-01T00:54:46;29.05;;;17.15;;
61638;SDS011;47544;52.484;4.658;2023-03-01T00:54:57;28.63;;;17.15;;
61638;SDS011;47544;52.484;4.658;2023-03-01T00:55:09;26.83;;;16.17;;
61638;SDS011;47544;52.484;4.658;2023-03-01T00:55:20;27.42;;;16.58;;
61638;SDS011;47544;52.484;4.658;2023-03-01T00:55:31;30.45;;;18.02;;
61638;SDS011;47544;52.484;4.658;2023-03-01T00:55:43;32.50;;;19.50;;
61638;SDS011;47544;52.484;4.658;2023-03-01T00:55:54;31.20;;;18.90;;
61638;SDS011;47544;52.484;4.658;2023-03-01T00:56:08;29.67;;;18.45;;
61638;SDS011;47544;52.484;4.658;2023-03-01T00:56:19;29.52;;;18.08;;
61638;SDS011;47544;52.484;4.658;2023-03-01T00:56:30;31.67;;;19.00;;
61638;SDS011;47544;52.484;4.658;2023-03-01T00:56:41;30.13;;;18.42;;
61638;SDS011;47544;52.484;4.658;2023-03-01T00:56:52;29.70;;;17.77;;
61638;SDS011;47544;52.484;4.658;2023-03-01T00:57:04;28.63;;;17.05;;
61638;SDS011;47544;52.484;4.658;2023-03-01T00:57:15;28.58;;;15.15;;
61638;SDS011;47544;52.484;4.658;2023-03-01T00:57:26;26.92;;;14.15;;
61638;SDS011;47544;52.484;4.658;2023-03-01T00:57:37;26.95;;;14.25;;
61638;SDS011;47544;52.484;4.658;2023-03-01T00:57:48;29.50;;;16.88;;
61638;SDS011;47544;52.484;4.658;2023-03-01T00:57:59;31.38;;;18.17;;
61638;SDS011;47544;52.484;4.658;2023-03-01T00:58:09;32.35;;;18.98;;
61638;SDS011;47544;52.484;4.658;2023-03-01T00:58:20;30.98;;;18.08;;
61638;SDS011;47544;52.484;4.658;2023-03-01T00:58:31;27.45;;;16.15;;
61638;SDS011;47544;52.484;4.658;2023-03-01T00:58:43;26.55;;;14.73;;
61638;SDS011;47544;52.484;4.658;2023-03-01T00:58:55;27.17;;;14.88;;
61638;SDS011;47544;52.484;4.658;2023-03-01T00:59:06;30.83;;;17.23;;
61638;SDS011;47544;52.484;4.658;2023-03-01T00:59:17;31.42;;;18.27;;
61638;SDS011;47544;52.484;4.658;2023-03-01T00:59:28;30.52;;;18.30;;
61638;SDS011;47544;52.484;4.658;2023-03-01T00:59:40;28.13;;;17.92;;
61638;SDS011;47544;52.484;4.658;2023-03-01T00:59:51;27.45;;;16.95;;
61638;SDS011;47544;52.484;4.658;2023-03-01T01:00:03;28.23;;;17.15;;
61638;SDS011;47544;52.484;4.658;2023-03-01T01:00:15;28.98;;;17.67;;
61638;SDS011;47544;52.484;4.658;2023-03-01T01:00:26;29.73;;;17.92;;
61638;SDS011;47544;52.484;4.658;2023-03-01T01:00:38;27.98;;;17.25;;
61638;SDS011;47544;52.484;4.658;2023-03-01T01:00:49;29.08;;;18.17;;
61638;SDS011;47544;52.484;4.658;2023-03-01T01:01:00;28.67;;;18.23;;
61638;SDS011;47544;52.484;4.658;2023-03-01T01:01:12;29.25;;;18.45;;
61638;SDS011;47544;52.484;4.658;2023-03-01T01:01:28;30.13;;;18.40;;
61638;SDS011;47544;52.484;4.658;2023-03-01T01:01:40;30.23;;;18.52;;
61638;SDS011;47544;52.484;4.658;2023-03-01T01:01:51;30.08;;;18.40;;
61638;SDS011;47544;52.484;4.658;2023-03-01T01:02:03;29.48;;;17.88;;
61638;SDS011;47544;52.484;4.658;2023-03-01T01:02:14;28.17;;;16.75;;
61638;SDS011;47544;52.484;4.658;2023-03-01T01:02:25;28.20;;;16.65;;
61638;SDS011;47544;52.484;4.658;2023-03-01T01:02:36;27.83;;;17.45;;
61638;SDS011;47544;52.484;4.658;2023-03-01T01:02:47;27.30;;;17.55;;
61638;SDS011;47544;52.484;4.658;2023-03-01T01:02:58;29.50;;;17.98;;
61638;SDS011;47544;52.484;4.658;2023-03-01T01:03:09;28.67;;;17.53;;
61638;SDS011;47544;52.484;4.658;2023-03-01T01:03:20;30.03;;;18.03;;
61638;SDS011;47544;52.484;4.658;2023-03-01T01:03:31;28.92;;;17.98;;
61638;SDS011;47544;52.484;4.658;2023-03-01T01:03:44;30.77;;;18.92;;
61638;SDS011;47544;52.484;4.658;2023-03-01T01:03:56;31.10;;;18.73;;
61638;SDS011;47544;52.484;4.658;2023-03-01T01:04:09;32.50;;;18.98;;
61638;SDS011;47544;52.484;4.658;2023-03-01T01:04:20;32.92;;;19.35;;
61638;SDS011;47544;52.484;4.658;2023-03-01T01:04:31;32.70;;;19.60;;
61638;SDS011;47544;52.484;4.658;2023-03-01T01:04:42;32.00;;;19.75;;
61638;SDS011;47544;52.484;4.658;2023-03-01T01:04:53;31.30;;;19.50;;
61638;SDS011;47544;52.484;4.658;2023-03-01T01:05:05;29.27;;;18.52;;
61638;SDS011;47544;52.484;4.658;2023-03-01T01:05:16;30.48;;;18.38;;
61638;SDS011;47544;52.484;4.658;2023-03-01T01:05:33;31.70;;;19.33;;
61638;SDS011;47544;52.484;4.658;2023-03-01T01:05:44;31.85;;;19.42;;
61638;SDS011;47544;52.484;4.658;2023-03-01T01:05:55;31.17;;;18.92;;
61638;SDS011;47544;52.484;4.658;2023-03-01T01:06:08;28.85;;;17.88;;
61638;SDS011;47544;52.484;4.658;2023-03-01T01:06:24;28.80;;;17.20;;
61638;SDS011;47544;52.484;4.658;2023-03-01T01:06:35;30.92;;;17.60;;
61638;SDS011;47544;52.484;4.658;2023-03-01T01:06:48;32.92;;;18.40;;
61638;SDS011;47544;52.484;4.658;2023-03-01T01:06:59;32.88;;;18.83;;
61638;SDS011;47544;52.484;4.658;2023-03-01T01:07:10;30.05;;;18.73;;
61638;SDS011;47544;52.484;4.658;2023-03-01T01:07:21;29.90;;;18.52;;
61638;SDS011;47544;52.484;4.658;2023-03-01T01:07:32;31.33;;;18.75;;